createdAt,value
2022-08-03T00:05:12.586Z,98938.58
2022-08-03T00:15:42.434Z,98936.05
2022-08-03T00:26:11.712Z,98928.95
2022-08-03T00:36:41.518Z,98936.34
2022-08-03T00:47:11.550Z,98935.95
2022-08-03T00:57:41.443Z,98945.73
2022-08-03T01:08:21.363Z,98932.52
2022-08-03T01:18:55.136Z,98939.49
2022-08-03T01:29:51.870Z,98945.55
2022-08-03T01:40:24.790Z,98947.98
2022-08-03T01:50:58.162Z,98944.02
2022-08-03T02:02:15.546Z,98940.73
2022-08-03T02:12:23.320Z,98930.27
2022-08-03T02:22:54.387Z,98929.92
2022-08-03T02:33:32.710Z,98929.11
2022-08-03T02:44:09.962Z,98921.16
2022-08-03T02:54:42.292Z,98926.98
2022-08-03T03:05:55.824Z,98933.23
2022-08-03T03:16:08.667Z,98943.05
2022-08-03T03:26:42.391Z,98945.65
2022-08-03T03:37:11.928Z,98949.20
2022-08-03T03:47:41.499Z,98952.40
2022-08-03T03:58:11.144Z,98956.84
2022-08-03T04:08:58.972Z,98964.23
2022-08-03T04:19:29.699Z,98965.27
2022-08-03T04:30:02.582Z,98973.20
2022-08-03T04:40:35.474Z,98980.44
2022-08-03T04:51:05.293Z,98985.52
2022-08-03T05:01:34.469Z,98983.79
2022-08-03T05:12:03.696Z,98982.63
2022-08-03T05:22:32.915Z,98987.14
2022-08-03T05:33:02.408Z,98992.41
2022-08-03T05:43:32.440Z,98993.13
2022-08-03T05:54:01.671Z,99000.17
2022-08-03T06:04:30.782Z,98995.39
2022-08-03T06:14:59.941Z,98996.05
2022-08-03T06:25:29.391Z,98993.91
2022-08-03T06:35:58.561Z,98998.52
2022-08-03T06:46:27.857Z,99013.30
2022-08-03T06:56:57.547Z,99009.61
2022-08-03T07:07:26.644Z,99013.89
2022-08-03T07:17:55.940Z,99008.79
2022-08-03T07:28:25.163Z,99000.23
2022-08-03T07:38:54.459Z,98999.33
2022-08-03T07:49:23.775Z,98992.52
2022-08-03T08:00:01.710Z,98993.39
2022-08-03T08:10:33.157Z,98988.54
2022-08-03T08:21:03.878Z,98990.95
2022-08-03T08:31:33.323Z,98995.66
2022-08-03T08:42:02.631Z,98994.68
2022-08-03T08:52:33.579Z,98997.48
2022-08-03T09:03:04.513Z,98995.47
2022-08-03T09:13:34.794Z,98996.90
2022-08-03T09:24:10.252Z,98995.35
2022-08-03T09:34:42.670Z,98989.89
2022-08-03T09:45:30.451Z,98988.73
2022-08-03T09:56:34.378Z,98983.56
2022-08-03T10:07:07.717Z,98974.27
2022-08-03T10:17:40.347Z,98971.21
2022-08-03T10:28:13.731Z,98963.95
2022-08-03T10:38:53.254Z,98963.70
2022-08-03T10:49:34.861Z,98962.45
2022-08-03T11:00:06.635Z,98960.02
2022-08-03T11:10:37.235Z,98947.65
2022-08-03T11:21:07.025Z,98937.60
2022-08-03T11:31:51.939Z,98929.93
2022-08-03T11:42:48.502Z,98924.88
2022-08-03T11:53:22.476Z,98914.55
2022-08-03T12:03:52.644Z,98906.39
2022-08-03T12:14:48.940Z,98898.34
2022-08-03T12:25:39.309Z,98894.89
2022-08-03T12:36:11.513Z,98886.06
2022-08-03T12:46:47.432Z,98883.60
2022-08-03T12:57:17.545Z,98879.88
2022-08-03T13:07:47.885Z,98881.98
2022-08-03T13:18:17.592Z,98882.59
2022-08-03T13:28:46.999Z,98874.48
2022-08-03T13:39:16.708Z,98872.25
2022-08-03T13:50:00.049Z,98869.34
2022-08-03T14:00:32.075Z,98859.45
2022-08-03T14:11:01.993Z,98856.18
2022-08-03T14:21:31.778Z,98855.55
2022-08-03T14:32:11.424Z,98850.09
2022-08-03T14:42:42.392Z,98839.96
2022-08-03T14:53:11.808Z,98833.90
2022-08-03T15:03:41.524Z,98827.52
2022-08-03T15:14:10.689Z,98825.30
2022-08-03T15:24:45.118Z,98815.35
2022-08-03T15:35:14.537Z,98807.27
2022-08-03T15:45:45.421Z,98806.25
2022-08-03T15:56:18.595Z,98802.40
2022-08-03T16:06:48.263Z,98795.58
2022-08-03T16:17:17.311Z,98790.67
2022-08-03T16:28:03.095Z,98779.27
2022-08-03T16:38:36.369Z,98772.34
2022-08-03T16:49:05.527Z,98778.04
2022-08-03T16:59:36.270Z,98782.56
2022-08-03T17:10:06.930Z,98785.94
2022-08-03T17:20:40.906Z,98792.98
2022-08-03T17:31:23.410Z,98795.36
2022-08-03T17:42:04.220Z,98808.73
2022-08-03T17:52:58.164Z,98814.80
2022-08-03T18:03:57.828Z,98820.02
2022-08-03T18:14:33.740Z,98824.35
2022-08-03T18:25:07.882Z,98827.30
2022-08-03T18:35:52.905Z,98832.71
2022-08-03T18:46:40.916Z,98843.11
2022-08-03T18:57:15.330Z,98857.17
2022-08-03T19:07:58.178Z,98864.85
2022-08-03T19:18:30.175Z,98876.87
2022-08-03T19:29:01.861Z,98877.41
2022-08-03T19:39:31.831Z,98874.86
2022-08-03T19:50:13.939Z,98877.23
2022-08-03T20:00:48.723Z,98877.92
2022-08-03T20:11:18.601Z,98872.65
2022-08-03T20:21:50.398Z,98878.22
2022-08-03T20:32:24.368Z,98876.83
2022-08-03T20:42:55.626Z,98876.30
2022-08-03T20:53:56.954Z,98879.65
2022-08-03T21:04:14.196Z,98882.56
2022-08-03T21:14:59.293Z,98884.27
2022-08-03T21:25:31.029Z,98886.68
2022-08-03T21:36:02.821Z,98895.85
2022-08-03T21:46:36.051Z,98897.95
2022-08-03T21:57:10.905Z,98898.03
2022-08-03T22:07:40.597Z,98893.80
2022-08-03T22:18:10.129Z,98893.36
2022-08-03T22:28:39.503Z,98897.92
2022-08-03T22:39:08.872Z,98900.20
2022-08-03T22:49:39.618Z,98901.71
2022-08-03T23:00:12.050Z,98898.10
2022-08-03T23:10:46.491Z,98894.84
2022-08-03T23:21:17.678Z,98897.25
2022-08-03T23:32:08.328Z,98891.56
2022-08-03T23:42:38.908Z,98885.50
2022-08-03T23:53:18.796Z,98884.44
